Time;durP1;ratioP1;P1;durP2;ratioP2;P2;SDS_P1;SDS_P2;PMS_P1;PMS_P2;Temp;Humidity;BMP_temperature;BMP_pressure;BME280_temperature;BME280_humidity;BME280_pressure;Samples;Min_cycle;Max_cycle;Signal;HPM_P1;HPM_P2
2022/01/31 00:02:24;;;;;;;17.88;6.35;;;;;;;4.38;100.00;101368.13;5054428;28;20025;-73
2022/01/31 00:04:49;;;;;;;21.27;6.65;;;;;;;4.35;100.00;101365.56;5071621;28;20025;-74
2022/01/31 00:07:15;;;;;;;19.63;6.30;;;;;;;4.31;100.00;101345.50;5073676;28;20430;-73
2022/01/31 00:09:42;;;;;;;21.05;7.38;;;;;;;4.30;100.00;101335.00;5073841;28;20020;-73
2022/01/31 00:12:12;;;;;;;28.88;8.02;;;;;;;4.26;100.00;101324.56;5074121;28;20145;-73
2022/01/31 00:14:46;;;;;;;22.90;7.68;;;;;;;4.24;100.00;101289.63;5073210;28;20033;-72
2022/01/31 00:17:13;;;;;;;26.95;7.95;;;;;;;4.23;100.00;101306.25;5055577;28;20028;-74
2022/01/31 00:19:39;;;;;;;29.98;7.97;;;;;;;4.21;100.00;101315.88;5054118;28;20021;-72
2022/01/31 00:22:10;;;;;;;24.98;8.98;;;;;;;4.19;100.00;101303.69;5054012;28;20057;-72
2022/01/31 00:24:36;;;;;;;23.52;8.32;;;;;;;4.18;100.00;101302.81;5063630;28;20044;-72
2022/01/31 00:27:03;;;;;;;19.52;7.95;;;;;;;4.17;100.00;101293.22;5073649;28;20468;-71
2022/01/31 00:29:28;;;;;;;26.00;8.68;;;;;;;4.19;100.00;101272.22;5073766;28;20491;-74
2022/01/31 00:31:54;;;;;;;26.83;9.50;;;;;;;4.18;100.00;101268.75;5068121;28;20020;-70
2022/01/31 00:34:19;;;;;;;29.10;9.82;;;;;;;4.18;100.00;101239.03;5059067;28;20488;-73
2022/01/31 00:36:44;;;;;;;24.42;8.80;;;;;;;4.21;100.00;101236.38;5061079;28;20021;-73
2022/01/31 00:39:10;;;;;;;29.45;9.52;;;;;;;4.18;100.00;101215.44;5053580;28;20028;-72
2022/01/31 00:41:35;;;;;;;29.92;9.15;;;;;;;4.20;100.00;101221.53;5053438;28;20029;-72
2022/01/31 00:44:13;;;;;;;23.00;8.30;;;;;;;4.21;100.00;101212.78;5053561;28;20028;-75
2022/01/31 00:46:42;;;;;;;25.45;8.70;;;;;;;4.22;100.00;101207.53;5072157;28;20048;-73
2022/01/31 00:49:15;;;;;;;25.33;8.27;;;;;;;4.23;100.00;101195.28;5073504;28;20077;-74
2022/01/31 00:51:40;;;;;;;23.50;7.78;;;;;;;4.25;100.00;101181.25;5073168;28;20453;-74
2022/01/31 00:54:06;;;;;;;23.92;7.53;;;;;;;4.28;100.00;101169.88;5073211;28;20052;-73
2022/01/31 00:56:31;;;;;;;20.02;7.13;;;;;;;4.29;100.00;101171.59;5072263;28;20032;-73
2022/01/31 00:58:56;;;;;;;26.65;8.48;;;;;;;4.31;100.00;101161.09;5073064;28;20056;-72
2022/01/31 01:01:22;;;;;;;26.08;7.10;;;;;;;4.34;100.00;101153.19;5073243;28;20077;-72
2022/01/31 01:03:47;;;;;;;22.23;6.80;;;;;;;4.35;100.00;101136.56;5073253;28;20376;-73
2022/01/31 01:06:12;;;;;;;21.17;6.05;;;;;;;4.40;100.00;101129.53;5072834;28;20039;-71
2022/01/31 01:08:38;;;;;;;22.00;6.55;;;;;;;4.40;100.00;101098.91;5072559;28;20077;-73
2022/01/31 01:11:04;;;;;;;14.40;5.70;;;;;;;4.44;100.00;101102.34;5072352;28;20362;-73
2022/01/31 01:13:29;;;;;;;22.23;7.07;;;;;;;4.47;100.00;101104.06;5072938;28;20048;-72
2022/01/31 01:15:54;;;;;;;16.35;5.38;;;;;;;4.51;100.00;101097.88;5072563;28;20051;-72
2022/01/31 01:18:20;;;;;;;20.15;5.75;;;;;;;4.55;100.00;101082.06;5071704;28;20029;-73
2022/01/31 01:20:45;;;;;;;15.95;4.90;;;;;;;4.63;100.00;101081.94;5072251;28;20036;-72
2022/01/31 01:23:10;;;;;;;17.75;4.68;;;;;;;4.68;100.00;101077.50;5072925;28;20107;-72
2022/01/31 01:25:36;;;;;;;15.15;4.88;;;;;;;4.73;100.00;101078.28;5072123;28;20024;-72
2022/01/31 01:28:01;;;;;;;14.68;4.47;;;;;;;4.78;100.00;101087.81;5072858;28;20035;-73
2022/01/31 01:30:26;;;;;;;17.70;4.05;;;;;;;4.83;100.00;101067.63;5072235;28;20487;-73
2022/01/31 01:35:25;;;;;;;12.93;4.35;;;;;;;5.05;100.00;101060.22;5072282;28;20082;-72
2022/01/31 01:37:51;;;;;;;14.38;4.85;;;;;;;5.17;100.00;101054.75;5072677;28;20112;-72
2022/01/31 01:40:16;;;;;;;19.48;4.68;;;;;;;5.19;100.00;101047.72;5072210;28;20039;-72
2022/01/31 01:42:42;;;;;;;19.70;5.53;;;;;;;5.27;100.00;101054.56;5072353;28;20651;-73
2022/01/31 01:45:07;;;;;;;28.65;4.97;;;;;;;5.38;100.00;101037.72;5072504;28;20090;-72
2022/01/31 01:47:33;;;;;;;19.98;4.22;;;;;;;5.53;100.00;101043.56;5071953;28;20392;-72
2022/01/31 01:49:58;;;;;;;21.98;4.30;;;;;;;5.69;100.00;101009.94;5072190;28;20033;-73
2022/01/31 01:52:23;;;;;;;19.10;4.68;;;;;;;5.72;100.00;101033.53;5072460;28;20051;-72
2022/01/31 01:54:49;;;;;;;28.60;4.20;;;;;;;5.72;100.00;101005.47;5072476;28;20032;-73
2022/01/31 01:57:17;;;;;;;27.67;4.07;;;;;;;5.76;100.00;101008.91;5071729;28;20024;-74
2022/01/31 01:59:43;;;;;;;18.70;3.75;;;;;;;5.80;100.00;101022.84;5072320;28;20032;-72
2022/01/31 02:02:09;;;;;;;17.80;3.10;;;;;;;5.81;100.00;101007.03;5054172;28;20444;-73
2022/01/31 02:04:35;;;;;;;15.07;3.47;;;;;;;5.89;100.00;100994.56;5072451;28;20028;-72
2022/01/31 02:07:00;;;;;;;17.20;4.72;;;;;;;5.90;100.00;100985.81;5072013;28;20472;-73
2022/01/31 02:09:28;;;;;;;19.00;3.83;;;;;;;5.86;100.00;100994.66;5072285;28;20033;-73
2022/01/31 02:11:54;;;;;;;17.67;3.53;;;;;;;5.87;100.00;100995.50;5071746;28;20044;-73
2022/01/31 02:14:26;;;;;;;19.70;3.72;;;;;;;5.88;100.00;100995.50;5071593;28;20460;-72
2022/01/31 02:16:53;;;;;;;25.70;4.70;;;;;;;5.87;100.00;100992.88;5072078;28;20023;-72
2022/01/31 02:19:21;;;;;;;17.48;3.78;;;;;;;5.86;100.00;100989.41;5072034;28;20158;-73
2022/01/31 02:21:50;;;;;;;18.40;4.03;;;;;;;5.92;100.00;100972.66;5052214;28;20080;-72
2022/01/31 02:24:15;;;;;;;22.13;3.75;;;;;;;5.92;100.00;100980.53;5052218;28;20021;-74
2022/01/31 02:26:41;;;;;;;16.85;4.10;;;;;;;5.85;100.00;100974.53;5071307;28;20040;-72
2022/01/31 02:29:08;;;;;;;15.48;3.20;;;;;;;5.86;100.00;100972.78;5071806;28;20380;-73
2022/01/31 02:31:34;;;;;;;14.60;2.85;;;;;;;5.82;100.00;100963.22;5074693;28;20103;-71
2022/01/31 02:34:00;;;;;;;18.73;3.67;;;;;;;5.82;100.00;100979.00;5075991;28;20033;-73
2022/01/31 02:36:25;;;;;;;13.98;2.65;;;;;;;5.77;100.00;100980.84;5075689;28;20031;-73
2022/01/31 02:38:51;;;;;;;15.77;3.05;;;;;;;5.76;100.00;100969.50;5075787;28;20058;-73
2022/01/31 02:41:16;;;;;;;9.98;2.92;;;;;;;5.83;100.00;100943.94;5075532;28;20027;-71
2022/01/31 02:43:47;;;;;;;12.57;3.00;;;;;;;5.83;100.00;100941.31;5075475;28;20020;-73
2022/01/31 02:46:13;;;;;;;14.70;2.95;;;;;;;5.84;100.00;100954.41;5075139;28;20101;-73
2022/01/31 02:48:38;;;;;;;14.27;2.55;;;;;;;5.84;100.00;100941.25;5075661;28;20032;-72
2022/01/31 02:51:09;;;;;;;19.10;2.92;;;;;;;5.84;100.00;100946.50;5075456;28;20028;-73
2022/01/31 02:53:40;;;;;;;16.75;3.50;;;;;;;5.88;100.00;100942.06;5074878;28;20024;-73
2022/01/31 02:56:06;;;;;;;11.18;2.75;;;;;;;5.86;100.00;100923.69;5074662;28;20024;-71
2022/01/31 02:58:31;;;;;;;17.23;2.70;;;;;;;5.83;98.36;100941.31;5070896;28;20025;-72
2022/01/31 03:00:58;;;;;;;17.65;2.40;;;;;;;5.81;97.41;100943.97;5055249;28;20059;-73
2022/01/31 03:03:23;;;;;;;15.52;3.28;;;;;;;5.78;98.48;100946.69;5069412;28;20025;-73
2022/01/31 03:05:48;;;;;;;12.00;3.08;;;;;;;5.73;98.01;100956.44;5075380;28;20033;-72
2022/01/31 03:08:14;;;;;;;12.98;2.80;;;;;;;5.76;96.87;100951.09;5074527;28;20029;-72
2022/01/31 03:10:39;;;;;;;14.13;2.90;;;;;;;5.70;97.69;100953.88;5074750;28;20487;-73
2022/01/31 03:13:05;;;;;;;10.32;2.55;;;;;;;5.64;97.24;100925.09;5074938;28;20086;-73
2022/01/31 03:15:31;;;;;;;18.05;2.75;;;;;;;5.66;96.47;100882.13;5074802;28;20024;-73
2022/01/31 03:17:57;;;;;;;18.98;3.47;;;;;;;5.62;96.80;100948.78;5074716;28;20029;-73
2022/01/31 03:20:24;;;;;;;15.50;2.53;;;;;;;5.61;97.37;100933.06;5075010;28;20025;-73
2022/01/31 03:22:50;;;;;;;20.30;2.53;;;;;;;5.55;97.78;100936.66;5075349;28;20108;-72
2022/01/31 03:25:16;;;;;;;19.67;2.75;;;;;;;5.58;96.47;100929.59;5062320;28;20549;-73
2022/01/31 03:27:42;;;;;;;15.88;2.25;;;;;;;5.55;96.59;100924.41;5059841;28;20054;-73
2022/01/31 03:30:11;;;;;;;17.73;2.65;;;;;;;5.64;94.64;100909.34;5074696;28;20392;-73
2022/01/31 03:32:36;;;;;;;15.63;2.55;;;;;;;5.68;94.36;100916.28;5074864;28;20484;-73
2022/01/31 03:35:03;;;;;;;10.63;2.22;;;;;;;5.71;94.53;100916.19;5074516;28;20099;-74
2022/01/31 03:37:29;;;;;;;10.88;2.38;;;;;;;5.72;94.39;100900.38;5074634;28;20032;-72
2022/01/31 03:39:54;;;;;;;13.50;2.83;;;;;;;5.77;94.05;100892.41;5074614;28;20020;-73
2022/01/31 03:42:19;;;;;;;15.95;2.80;;;;;;;5.79;93.76;100892.34;5073742;28;20103;-73
2022/01/31 03:44:47;;;;;;;19.73;3.03;;;;;;;5.76;93.66;100901.16;5074464;28;20016;-73
2022/01/31 03:47:12;;;;;;;11.52;2.33;;;;;;;5.72;92.60;100889.00;5074065;28;20068;-74
2022/01/31 03:49:38;;;;;;;13.88;2.30;;;;;;;5.67;92.58;100888.25;5074232;28;20052;-74
2022/01/31 03:52:03;;;;;;;13.02;2.00;;;;;;;5.66;92.50;100897.88;5056389;28;20111;-73
2022/01/31 03:54:29;;;;;;;14.10;2.50;;;;;;;5.69;91.62;100892.59;5074560;28;20112;-73
2022/01/31 03:56:54;;;;;;;14.23;2.75;;;;;;;5.73;90.83;100890.75;5074019;28;20025;-74
2022/01/31 03:59:19;;;;;;;12.98;2.53;;;;;;;5.81;89.32;100893.19;5074529;28;20123;-73
2022/01/31 04:01:45;;;;;;;14.88;2.17;;;;;;;5.86;89.47;100872.91;5074139;28;20099;-74
2022/01/31 04:04:10;;;;;;;15.02;2.63;;;;;;;5.89;87.21;100864.94;5075056;28;20051;-74
2022/01/31 04:06:40;;;;;;;9.73;2.22;;;;;;;5.93;87.79;100869.22;5074471;28;20361;-73
2022/01/31 04:09:06;;;;;;;18.75;2.72;;;;;;;5.87;87.98;100854.47;5074213;28;20029;-73
2022/01/31 04:11:31;;;;;;;15.95;2.40;;;;;;;5.90;88.38;100879.81;5073770;28;20440;-74
2022/01/31 04:13:56;;;;;;;12.00;2.58;;;;;;;5.91;87.29;100868.41;5074058;28;20029;-73
2022/01/31 04:16:22;;;;;;;15.13;2.50;;;;;;;5.96;87.07;100863.00;5073614;28;20024;-72
2022/01/31 04:18:47;;;;;;;14.70;2.53;;;;;;;6.03;85.71;100862.84;5073819;28;20115;-73
2022/01/31 04:21:13;;;;;;;16.50;2.45;;;;;;;6.03;86.53;100862.84;5073669;28;20066;-73
2022/01/31 04:23:39;;;;;;;17.20;2.88;;;;;;;6.02;86.69;100865.53;5073876;28;20036;-73
2022/01/31 04:26:11;;;;;;;14.50;2.60;;;;;;;6.02;87.05;100863.78;5073951;28;20028;-72
2022/01/31 04:28:44;;;;;;;17.20;3.63;;;;;;;6.04;84.51;100875.09;5073419;28;20803;-74
2022/01/31 04:31:26;;;;;;;9.15;2.03;;;;;;;6.09;84.48;100858.34;5073416;28;20068;-73
2022/01/31 04:33:51;;;;;;;13.18;2.75;;;;;;;6.14;84.30;100854.72;5073436;28;20020;-72
2022/01/31 04:36:18;;;;;;;16.00;3.20;;;;;;;6.18;83.54;100866.00;5073291;28;20038;-73
2022/01/31 04:38:45;;;;;;;13.02;2.42;;;;;;;6.19;83.17;100859.81;5072988;28;20024;-72
2022/01/31 04:41:10;;;;;;;11.00;2.22;;;;;;;6.20;82.94;100851.91;5072948;28;20036;-73
2022/01/31 04:43:36;;;;;;;11.18;2.92;;;;;;;6.22;82.97;100860.63;5073556;28;20032;-74
2022/01/31 04:46:04;;;;;;;13.50;2.08;;;;;;;6.21;83.54;100850.13;5072988;28;20055;-73
2022/01/31 04:48:30;;;;;;;15.63;2.65;;;;;;;6.22;83.19;100851.88;5072830;28;20094;-72
2022/01/31 04:50:55;;;;;;;16.52;2.92;;;;;;;6.21;84.31;100822.09;5072826;28;20020;-72
2022/01/31 04:53:21;;;;;;;9.07;2.40;;;;;;;6.15;84.81;100869.59;5073261;28;20108;-75
2022/01/31 04:55:46;;;;;;;16.35;2.80;;;;;;;6.02;87.30;100866.41;5073278;28;20025;-75
2022/01/31 04:58:12;;;;;;;14.10;2.75;;;;;;;5.93;88.95;100886.75;5072801;28;20033;-74
2022/01/31 05:00:37;;;;;;;10.95;1.98;;;;;;;5.61;91.88;100878.75;5072705;28;20524;-71
2022/01/31 05:03:09;;;;;;;17.33;2.95;;;;;;;5.25;95.42;100889.19;5073071;28;20057;-72
2022/01/31 05:05:34;;;;;;;21.40;2.53;;;;;;;5.07;97.50;100865.06;5072976;28;20029;-72
2022/01/31 05:07:59;;;;;;;14.23;3.00;;;;;;;5.00;99.40;100871.34;5072742;28;20387;-72
2022/01/31 05:10:25;;;;;;;16.80;2.45;;;;;;;4.97;98.36;100850.41;5072493;28;20404;-71
2022/01/31 05:12:50;;;;;;;15.13;3.03;;;;;;;5.05;96.51;100872.13;5073168;28;20468;-75
2022/01/31 05:15:15;;;;;;;15.00;3.25;;;;;;;5.17;95.81;100872.75;5072996;28;20028;-73
2022/01/31 05:17:41;;;;;;;12.60;2.90;;;;;;;5.25;94.61;100865.56;5072661;28;20746;-74
2022/01/31 05:20:07;;;;;;;17.85;3.55;;;;;;;5.29;94.38;100859.34;5072065;28;20541;-73
2022/01/31 05:22:32;;;;;;;27.70;3.90;;;;;;;5.31;93.67;100847.06;5072638;28;20111;-72
2022/01/31 05:24:57;;;;;;;17.17;2.90;;;;;;;5.38;92.52;100860.91;5072708;28;20111;-75
2022/01/31 05:27:23;;;;;;;17.13;2.70;;;;;;;5.44;91.69;100862.53;5072166;28;20086;-72
2022/01/31 05:29:48;;;;;;;23.02;3.00;;;;;;;5.46;91.76;100865.97;5072789;28;20502;-75
2022/01/31 05:32:14;;;;;;;12.75;2.85;;;;;;;5.51;89.67;100828.22;5072327;28;20078;-73
2022/01/31 05:34:39;;;;;;;17.92;2.92;;;;;;;5.51;89.46;100846.59;5072226;28;20037;-73
2022/01/31 05:37:04;;;;;;;23.73;3.47;;;;;;;5.54;89.55;100859.66;5072521;28;20024;-73
2022/01/31 05:39:30;;;;;;;18.90;3.03;;;;;;;5.58;89.42;100845.53;5072208;28;20518;-74
2022/01/31 05:41:57;;;;;;;11.85;2.28;;;;;;;5.63;nan;100848.06;5072132;28;20025;-72
2022/01/31 05:44:25;;;;;;;19.55;2.90;;;;;;;5.63;88.74;100837.56;5072565;28;20507;-73
2022/01/31 05:46:51;;;;;;;20.63;3.72;;;;;;;5.68;88.37;100845.34;5072372;28;20044;-72
2022/01/31 05:49:17;;;;;;;18.83;3.55;;;;;;;5.73;88.43;100851.34;5071523;28;20055;-73
2022/01/31 05:51:53;;;;;;;23.00;3.47;;;;;;;5.74;88.07;100851.28;5072295;28;20047;-72
2022/01/31 05:54:19;;;;;;;19.70;3.58;;;;;;;5.71;88.95;100835.59;5072077;28;20032;-73
2022/01/31 05:56:44;;;;;;;19.67;3.33;;;;;;;5.73;88.74;100832.94;5054082;28;20021;-75
2022/01/31 05:59:10;;;;;;;15.32;2.60;;;;;;;5.72;87.94;100842.56;5068562;28;20025;-75
2022/01/31 06:01:38;;;;;;;20.65;3.40;;;;;;;5.73;87.65;100830.31;5061383;28;20484;-73
2022/01/31 06:04:05;;;;;;;17.25;3.45;;;;;;;5.74;86.90;100837.28;5062295;28;20021;-72
2022/01/31 06:06:30;;;;;;;21.52;3.85;;;;;;;5.78;85.59;100836.31;5078086;28;20031;-75
2022/01/31 06:08:56;;;;;;;22.35;3.45;;;;;;;5.82;85.97;100834.44;5078406;28;20024;-74
2022/01/31 06:11:21;;;;;;;18.92;3.35;;;;;;;5.86;84.57;100825.63;5078589;28;20016;-72
2022/01/31 06:13:47;;;;;;;27.90;4.13;;;;;;;5.87;85.79;100848.34;5078610;28;20119;-75
2022/01/31 06:16:13;;;;;;;18.60;2.92;;;;;;;5.87;85.89;100835.19;5078840;28;20039;-74
2022/01/31 06:18:38;;;;;;;16.90;2.83;;;;;;;5.85;86.48;100834.38;5078746;28;20021;-74
2022/01/31 06:21:03;;;;;;;16.65;3.60;;;;;;;5.82;86.20;100847.59;5078189;28;20090;-72
2022/01/31 06:23:29;;;;;;;15.93;3.33;;;;;;;5.88;85.38;100844.81;5078736;28;20100;-72
2022/01/31 06:25:54;;;;;;;19.92;3.13;;;;;;;5.90;84.15;100829.88;5078426;28;20024;-74
2022/01/31 06:28:20;;;;;;;18.73;3.05;;;;;;;5.94;82.64;100841.19;5078665;28;21074;-72
2022/01/31 06:30:46;;;;;;;15.23;2.63;;;;;;;5.95;83.93;100835.88;5078103;28;20035;-73
2022/01/31 06:33:15;;;;;;;18.05;3.00;;;;;;;5.99;82.64;100834.94;5078171;28;20074;-72
2022/01/31 06:35:41;;;;;;;16.50;2.83;;;;;;;6.02;82.76;100844.50;5078319;28;20384;-74
2022/01/31 06:38:07;;;;;;;14.90;2.65;;;;;;;6.01;82.94;100890.09;5081005;28;20023;-73
2022/01/31 06:40:32;;;;;;;10.30;2.47;;;;;;;6.01;82.96;100858.53;5090956;28;20033;-74
2022/01/31 06:42:57;;;;;;;18.30;2.90;;;;;;;5.96;84.25;100868.28;5078475;28;20357;-75
2022/01/31 06:45:23;;;;;;;15.43;3.00;;;;;;;5.82;86.80;100880.00;5078722;28;20032;-72
2022/01/31 06:47:48;;;;;;;21.30;3.20;;;;;;;5.65;89.88;100871.66;5078249;28;20038;-73
2022/01/31 06:50:13;;;;;;;24.73;3.50;;;;;;;5.42;91.96;100894.06;5078656;28;20530;-72
2022/01/31 06:52:39;;;;;;;22.48;3.45;;;;;;;5.36;92.62;100888.97;5077834;28;20467;-73
2022/01/31 06:55:06;;;;;;;21.20;4.32;;;;;;;5.28;93.57;100875.13;5059974;28;20045;-74
2022/01/31 06:57:36;;;;;;;17.90;3.10;;;;;;;5.27;93.84;100878.66;5071981;28;20086;-73
2022/01/31 07:00:05;;;;;;;24.23;3.58;;;;;;;5.23;93.12;100880.47;5078396;28;20030;-71
2022/01/31 07:02:30;;;;;;;20.10;3.50;;;;;;;5.21;93.25;100884.91;5077877;28;20032;-71
2022/01/31 07:04:56;;;;;;;16.73;3.78;;;;;;;5.19;93.41;100884.06;5078574;28;20067;-73
2022/01/31 07:07:21;;;;;;;27.83;3.40;;;;;;;5.20;93.07;100876.16;5077812;28;20040;-71
2022/01/31 07:09:46;;;;;;;25.25;3.70;;;;;;;5.20;93.93;100881.41;5078215;28;20111;-74
2022/01/31 07:12:12;;;;;;;23.33;4.10;;;;;;;5.25;93.71;100903.16;5077829;28;20103;-71
2022/01/31 07:14:38;;;;;;;22.67;3.30;;;;;;;5.31;93.86;100901.34;5078224;28;20035;-71
2022/01/31 07:17:06;;;;;;;27.10;4.25;;;;;;;5.36;92.45;100892.44;5076622;28;20028;-72
2022/01/31 07:19:34;;;;;;;17.45;3.63;;;;;;;5.34;92.74;100901.25;5077953;28;20029;-72
2022/01/31 07:22:02;;;;;;;27.35;3.55;;;;;;;5.38;91.83;100871.41;5075148;28;20063;-73
2022/01/31 07:24:44;;;;;;;23.77;3.45;;;;;;;5.40;91.93;100888.00;5074286;28;20029;-73
2022/01/31 07:27:09;;;;;;;30.95;4.53;;;;;;;5.40;91.21;100873.09;5074466;28;20480;-74
2022/01/31 07:29:34;;;;;;;22.27;3.75;;;;;;;5.43;91.84;100881.81;5074527;28;20039;-74
2022/01/31 07:32:00;;;;;;;25.23;3.97;;;;;;;5.45;91.87;100901.88;5074999;28;20100;-74
2022/01/31 07:34:26;;;;;;;20.35;3.50;;;;;;;5.46;92.26;100889.59;5074565;28;20031;-74
2022/01/31 07:36:52;;;;;;;31.23;3.67;;;;;;;5.43;92.68;100889.69;5074762;28;20028;-74
2022/01/31 07:39:18;;;;;;;25.35;4.38;;;;;;;5.41;93.02;100895.00;5074219;28;20036;-74
2022/01/31 07:41:45;;;;;;;27.02;4.65;;;;;;;5.45;91.23;100903.63;5074493;28;20078;-72
2022/01/31 07:44:11;;;;;;;27.70;4.53;;;;;;;5.54;89.74;100877.19;5074293;28;20024;-74
2022/01/31 07:46:37;;;;;;;21.05;3.40;;;;;;;5.57;90.13;100901.59;5056573;28;20072;-75
2022/01/31 07:49:03;;;;;;;24.30;3.60;;;;;;;5.64;88.71;100907.59;5074083;28;20079;-75
2022/01/31 07:51:29;;;;;;;26.73;5.85;;;;;;;5.71;89.12;100884.66;5074118;28;20110;-74
2022/01/31 07:53:54;;;;;;;27.48;4.18;;;;;;;5.78;88.44;100935.28;5073628;28;20028;-73
2022/01/31 07:56:20;;;;;;;15.45;3.58;;;;;;;5.77;87.95;100929.19;5074304;28;20032;-72
2022/01/31 07:58:46;;;;;;;26.02;4.65;;;;;;;5.77;87.60;100931.81;5074084;28;20762;-73
2022/01/31 08:01:12;;;;;;;19.90;3.20;;;;;;;5.80;86.65;100928.25;5073861;28;20028;-74
2022/01/31 08:03:38;;;;;;;22.25;4.13;;;;;;;5.84;87.43;100856.31;5074064;28;20062;-73
2022/01/31 08:06:04;;;;;;;21.85;4.68;;;;;;;5.91;86.27;100923.59;5073600;28;20032;-75
2022/01/31 08:08:30;;;;;;;27.42;5.32;;;;;;;5.87;86.22;100912.28;5070356;28;20024;-75
2022/01/31 08:10:59;;;;;;;22.35;4.78;;;;;;;5.90;86.77;100908.72;5073575;28;20027;-75
2022/01/31 08:13:25;;;;;;;36.80;6.63;;;;;;;5.91;87.00;100913.09;5073710;28;20107;-73
2022/01/31 08:18:32;;;;;;;33.70;5.45;;;;;;;5.89;89.90;100959.56;5074014;28;20047;-74
2022/01/31 08:20:57;;;;;;;27.38;4.68;;;;;;;5.69;92.59;100946.88;5074826;28;20025;-75
2022/01/31 08:23:23;;;;;;;28.38;4.28;;;;;;;5.51;93.42;100954.28;5084770;28;20023;-74
2022/01/31 08:25:49;;;;;;;18.75;3.95;;;;;;;5.44;93.31;100976.31;5072923;28;20484;-74
2022/01/31 08:28:21;;;;;;;23.58;3.80;;;;;;;5.47;91.97;100970.13;5072243;28;20024;-74
2022/01/31 08:30:56;;;;;;;26.73;3.63;;;;;;;5.53;90.86;100946.38;5072437;28;20111;-72
2022/01/31 08:36:08;;;;;;;24.15;4.55;;;;;;;5.60;89.88;100981.25;5007728;28;20030;-73
2022/01/31 08:38:38;;;;;;;28.67;4.57;;;;;;;5.65;89.45;100951.38;5015804;28;20060;-73
2022/01/31 08:41:05;;;;;;;22.25;4.07;;;;;;;5.72;87.52;100980.97;4998566;28;20038;-72
2022/01/31 08:43:32;;;;;;;21.63;4.03;;;;;;;5.79;87.47;100942.28;5000540;28;20037;-76
2022/01/31 08:45:58;;;;;;;26.63;3.95;;;;;;;5.81;86.66;100977.28;4998029;28;20061;-75
2022/01/31 08:48:27;;;;;;;26.10;4.22;;;;;;;5.83;86.45;100978.09;5010437;28;20078;-75
2022/01/31 08:50:54;;;;;;;26.70;3.50;;;;;;;5.85;87.33;100987.66;4996418;28;20429;-74
2022/01/31 08:53:19;;;;;;;35.40;5.53;;;;;;;5.87;86.56;100967.50;5013875;28;20041;-76
2022/01/31 08:55:50;;;;;;;24.27;4.82;;;;;;;5.91;86.96;100968.28;5004189;28;20032;-73
2022/01/31 08:58:15;;;;;;;35.50;4.72;;;;;;;5.89;87.22;100956.94;5001960;28;20038;-74
2022/01/31 09:00:42;;;;;;;25.48;4.30;;;;;;;5.92;88.19;100956.88;5008112;28;20049;-73
2022/01/31 09:05:37;;;;;;;30.55;4.70;;;;;;;5.93;87.79;100986.63;5008566;28;20045;-75
2022/01/31 09:08:03;;;;;;;30.42;5.32;;;;;;;5.90;88.77;100979.69;5010665;28;20030;-76
2022/01/31 09:10:28;;;;;;;27.85;5.55;;;;;;;5.86;87.83;100970.16;5008379;28;20498;-73
2022/01/31 09:12:58;;;;;;;30.35;4.85;;;;;;;5.93;87.41;101010.28;5032965;28;20040;-75
2022/01/31 09:15:24;;;;;;;35.85;4.70;;;;;;;6.03;83.59;101002.19;5065590;28;20044;-75
2022/01/31 09:17:49;;;;;;;29.35;5.45;;;;;;;6.07;82.08;100974.06;5072599;28;20071;-75
2022/01/31 09:20:15;;;;;;;30.63;5.30;;;;;;;6.10;80.28;101033.59;5072744;28;20103;-76
2022/01/31 09:22:42;;;;;;;28.23;4.53;;;;;;;6.15;79.71;101008.06;5072419;28;20035;-74
2022/01/31 09:25:08;;;;;;;25.65;5.28;;;;;;;6.17;79.88;101004.50;5057401;28;20672;-74
2022/01/31 09:27:33;;;;;;;34.53;5.38;;;;;;;6.21;79.90;101002.66;5071850;28;20032;-75
2022/01/31 09:29:59;;;;;;;30.35;4.95;;;;;;;6.23;80.09;101020.13;5072646;28;20025;-76
2022/01/31 09:32:25;;;;;;;35.60;5.25;;;;;;;6.29;80.40;101036.66;5050440;28;20044;-77
2022/01/31 09:37:25;;;;;;;20.20;4.55;;;;;;;6.28;79.13;101022.66;5063812;28;20502;-65
2022/01/31 09:39:51;;;;;;;29.88;4.93;;;;;;;6.28;77.99;101020.03;5070101;28;20025;-65
2022/01/31 09:42:28;;;;;;;24.35;5.40;;;;;;;6.31;77.77;101013.84;5071651;28;20467;-66
2022/01/31 09:50:13;;;;;;;33.70;4.82;;;;;;;6.39;76.00;101038.16;5071779;28;20090;-67
2022/01/31 09:52:39;;;;;;;35.10;6.30;;;;;;;6.36;76.78;101040.88;5071853;28;20020;-66
2022/01/31 09:55:06;;;;;;;30.67;5.05;;;;;;;6.35;75.41;101060.19;5072777;28;20395;-68
2022/01/31 09:57:31;;;;;;;29.10;5.05;;;;;;;6.37;75.34;101075.03;5071629;28;20029;-65
2022/01/31 09:59:56;;;;;;;28.55;4.10;;;;;;;6.33;75.02;101089.16;5071578;28;20032;-64
2022/01/31 10:02:22;;;;;;;28.23;4.68;;;;;;;6.37;75.66;101085.56;5066051;28;20021;-67
2022/01/31 10:04:48;;;;;;;31.73;4.85;;;;;;;6.34;78.10;101061.09;5072114;28;20036;-65
2022/01/31 10:07:14;;;;;;;37.78;5.32;;;;;;;6.20;81.79;101137.66;5072046;28;20464;-68
2022/01/31 10:09:43;;;;;;;29.83;5.40;;;;;;;5.94;86.05;101140.84;5069131;28;20107;-65
2022/01/31 10:17:48;;;;;;;30.70;5.03;;;;;;;5.72;85.68;101131.59;5059266;28;20055;-64
2022/01/31 10:20:32;;;;;;;24.05;4.18;;;;;;;5.84;82.01;101163.78;5052438;28;20021;-64
2022/01/31 10:23:12;;;;;;;27.33;5.07;;;;;;;5.95;80.52;101142.56;5052071;28;20053;-66
2022/01/31 10:25:38;;;;;;;33.67;6.35;;;;;;;5.97;81.36;101172.31;5070729;28;20028;-65
2022/01/31 10:28:13;;;;;;;42.10;6.47;;;;;;;6.04;81.34;101160.81;5062726;28;20115;-66
2022/01/31 10:30:39;;;;;;;32.42;5.38;;;;;;;6.05;82.12;101184.44;5069622;28;20025;-64
2022/01/31 10:33:07;;;;;;;30.65;5.45;;;;;;;6.07;80.61;101152.84;5071457;28;20029;-66
2022/01/31 10:35:32;;;;;;;35.20;6.15;;;;;;;6.10;81.09;101165.94;5067209;28;20045;-65
2022/01/31 10:38:04;;;;;;;26.40;4.40;;;;;;;6.07;80.46;101168.63;5070551;28;20093;-66
2022/01/31 10:43:39;;;;;;;30.58;4.95;;;;;;;6.09;81.56;101164.22;5063883;28;20483;-65
2022/01/31 10:57:01;;;;;;;29.35;5.10;;;;;;;6.06;84.36;101119.56;5074321;28;20067;-66
2022/01/31 10:59:35;;;;;;;37.42;5.95;;;;;;;6.12;81.81;101207.97;5070575;28;20115;-66
2022/01/31 11:02:04;;;;;;;34.90;5.75;;;;;;;6.11;80.68;101196.56;5069100;28;20059;-68
2022/01/31 11:04:35;;;;;;;32.38;6.30;;;;;;;6.13;78.92;101210.56;5074777;28;20017;-67
2022/01/31 11:07:06;;;;;;;29.73;6.05;;;;;;;6.13;78.82;101236.84;5074114;28;20036;-66
2022/01/31 11:09:31;;;;;;;39.03;5.70;;;;;;;6.15;79.46;101223.69;5074514;28;20476;-67
2022/01/31 11:11:57;;;;;;;28.95;4.93;;;;;;;6.17;78.43;101216.63;5064059;28;20028;-67
2022/01/31 11:14:22;;;;;;;37.33;5.47;;;;;;;6.15;79.35;101213.16;5070840;28;20021;-67
2022/01/31 11:16:49;;;;;;;30.98;4.78;;;;;;;6.06;79.50;101236.13;5073078;28;20583;-66
2022/01/31 11:19:22;;;;;;;39.28;4.88;;;;;;;6.01;81.80;101230.09;5073362;28;20032;-65
2022/01/31 11:21:48;;;;;;;41.13;5.88;;;;;;;5.93;81.78;101213.53;5074640;28;20028;-67
2022/01/31 11:24:23;;;;;;;36.50;6.68;;;;;;;5.84;82.69;101230.34;5051789;28;20025;-67
2022/01/31 11:26:58;;;;;;;31.48;5.35;;;;;;;5.79;84.82;101262.88;5064762;28;20041;-67
2022/01/31 11:29:24;;;;;;;30.65;5.47;;;;;;;5.69;86.13;101262.19;5074163;28;20044;-67
2022/01/31 11:31:49;;;;;;;39.35;6.15;;;;;;;5.54;87.97;101260.72;5071846;28;20032;-68
2022/01/31 11:34:15;;;;;;;41.47;6.38;;;;;;;5.48;89.29;101251.16;5061951;28;20090;-67
2022/01/31 11:36:42;;;;;;;37.70;5.80;;;;;;;5.40;88.65;101285.44;5070783;28;20395;-69
2022/01/31 11:39:11;;;;;;;30.77;5.28;;;;;;;5.39;89.04;101267.94;5072384;28;20040;-65
2022/01/31 11:41:43;;;;;;;44.35;5.85;;;;;;;5.36;89.53;101252.22;5067342;28;20077;-65
2022/01/31 11:44:27;;;;;;;36.42;6.18;;;;;;;5.43;90.18;101274.00;5068877;28;20025;-65
2022/01/31 11:46:55;;;;;;;35.55;6.57;;;;;;;5.46;90.40;101270.47;5072387;28;20108;-65
2022/01/31 11:49:21;;;;;;;45.97;7.57;;;;;;;5.38;90.49;101270.59;5068650;28;20029;-65
2022/01/31 11:52:07;;;;;;;34.28;6.07;;;;;;;5.27;91.08;101283.00;5072838;28;20033;-68
2022/01/31 11:54:54;;;;;;;44.80;6.72;;;;;;;5.23;91.95;101266.44;5074226;28;20456;-69
2022/01/31 11:57:27;;;;;;;38.00;5.82;;;;;;;5.27;91.50;101260.28;5058753;28;20070;-65
2022/01/31 12:00:10;;;;;;;33.35;5.90;;;;;;;5.39;90.17;101270.56;5069513;28;20085;-66
2022/01/31 12:02:49;;;;;;;36.53;5.38;;;;;;;5.47;89.12;101270.44;5070460;28;20017;-67